Time;durP1;ratioP1;P1;durP2;ratioP2;P2;SDS_P1;SDS_P2;PMS_P1;PMS_P2;Temp;Humidity;BMP_temperature;BMP_pressure;BME280_temperature;BME280_humidity;BME280_pressure;Samples;Min_cycle;Max_cycle;Signal;HPM_P1;HPM_P2
2021/12/14 00:04:55;;;;;;;123.9;148;;;;;;;1.6;78.1;99840;;;;
2021/12/14 00:15:55;;;;;;;123.9;148;;;;;;;1.6;78.4;99830;;;;
2021/12/14 00:25:55;;;;;;;123.9;148;;;;;;;1.6;78.9;99830;;;;
2021/12/14 00:36:55;;;;;;;119.3;146.2;;;;;;;1.7;79.1;99840;;;;
2021/12/14 00:46:55;;;;;;;119.3;146.2;;;;;;;1.7;78.9;99840;;;;
2021/12/14 00:57:55;;;;;;;119.3;146.2;;;;;;;1.8;79.1;99840;;;;
2021/12/14 01:07:55;;;;;;;119.5;142.5;;;;;;;1.8;79;99830;;;;
2021/12/14 01:19:02;;;;;;;119.5;142.5;;;;;;;1.9;78.9;99830;;;;
2021/12/14 01:29:56;;;;;;;119.5;142.5;;;;;;;2;79.2;99820;;;;
2021/12/14 01:40:06;;;;;;;105.4;127;;;;;;;1.9;79.7;99820;;;;
2021/12/14 01:50:56;;;;;;;105.4;127;;;;;;;1.9;80.5;99820;;;;
2021/12/14 02:00:55;;;;;;;105.4;127;;;;;;;1.9;80.8;99820;;;;
2021/12/14 02:10:55;;;;;;;98.6;116.8;;;;;;;2;80.8;99820;;;;
2021/12/14 02:20:55;;;;;;;98.6;116.8;;;;;;;2;81.1;99820;;;;
2021/12/14 02:31:55;;;;;;;87.6;105.8;;;;;;;2.1;80.7;99820;;;;
2021/12/14 02:41:55;;;;;;;87.6;105.8;;;;;;;2.2;80.5;99820;;;;
2021/12/14 02:51:55;;;;;;;87.6;105.8;;;;;;;2.2;79.9;99830;;;;
2021/12/14 03:01:55;;;;;;;110.5;134.8;;;;;;;2;79.5;99820;;;;
2021/12/14 03:12:55;;;;;;;110.5;134.8;;;;;;;1.7;79.6;99840;;;;
2021/12/14 03:23:55;;;;;;;110.5;134.8;;;;;;;1.7;80.2;99830;;;;
2021/12/14 03:34:57;;;;;;;141.2;165;;;;;;;1.8;80.2;99820;;;;
2021/12/14 03:45:55;;;;;;;141.2;165;;;;;;;1.7;80.4;99820;;;;
2021/12/14 03:55:55;;;;;;;141.2;165;;;;;;;1.7;80.6;99820;;;;
2021/12/14 04:06:55;;;;;;;146.6;175.5;;;;;;;1.9;79.6;99810;;;;
2021/12/14 04:16:55;;;;;;;146.6;175.5;;;;;;;1.6;79.5;99800;;;;
2021/12/14 04:27:55;;;;;;;146.6;175.5;;;;;;;1.4;79.3;99790;;;;
2021/12/14 04:39:00;;;;;;;152.6;197;;;;;;;1;79.6;99800;;;;
2021/12/14 04:58:55;;;;;;;152.6;197;;;;;;;0.8;80.1;99810;;;;
2021/12/14 05:09:55;;;;;;;154.3;204.5;;;;;;;0.4;80.3;99820;;;;
2021/12/14 05:20:55;;;;;;;154.3;204.5;;;;;;;0.3;81;99820;;;;
2021/12/14 05:30:56;;;;;;;158.2;215.8;;;;;;;0.4;80.9;99820;;;;
2021/12/14 05:41:08;;;;;;;158.2;215.8;;;;;;;0.3;81.7;99830;;;;
2021/12/14 05:51:55;;;;;;;158.2;215.8;;;;;;;0.6;81.9;99820;;;;
2021/12/14 06:01:55;;;;;;;146.8;208.7;;;;;;;0.6;81;99800;;;;
2021/12/14 06:12:55;;;;;;;146.8;208.7;;;;;;;0.6;81.7;99810;;;;
2021/12/14 06:22:55;;;;;;;146.8;208.7;;;;;;;0.7;81.5;99810;;;;
2021/12/14 06:32:55;;;;;;;142.3;190.1;;;;;;;0.5;82.6;99800;;;;
2021/12/14 06:43:55;;;;;;;142.3;190.1;;;;;;;0.9;82.2;99800;;;;
2021/12/14 06:53:55;;;;;;;142.3;190.1;;;;;;;1;82.5;99800;;;;
2021/12/14 07:04:55;;;;;;;118.5;160.5;;;;;;;1;81.8;99800;;;;
2021/12/14 07:14:57;;;;;;;118.5;160.5;;;;;;;1.1;81.9;99800;;;;
2021/12/14 07:24:55;;;;;;;118.5;160.5;;;;;;;1.1;82.1;99800;;;;
2021/12/14 07:34:55;;;;;;;132.1;177.5;;;;;;;1.4;82.2;99810;;;;
2021/12/14 07:45:56;;;;;;;132.1;177.5;;;;;;;1.3;81.6;99810;;;;
2021/12/14 07:55:55;;;;;;;132.1;177.5;;;;;;;1.4;81.4;99820;;;;
2021/12/14 08:05:55;;;;;;;145.6;183.2;;;;;;;1.7;81.5;99820;;;;
2021/12/14 08:15:55;;;;;;;145.6;183.2;;;;;;;1.9;81.1;99820;;;;
2021/12/14 08:26:55;;;;;;;145.6;183.2;;;;;;;2.1;80.3;99810;;;;
2021/12/14 08:36:55;;;;;;;137.4;180.9;;;;;;;1.8;80.9;99800;;;;
2021/12/14 08:46:55;;;;;;;137.4;180.9;;;;;;;2.1;80.9;99800;;;;
2021/12/14 08:56:55;;;;;;;137.4;180.9;;;;;;;2.3;79.6;99800;;;;
2021/12/14 09:07:55;;;;;;;153.5;213.6;;;;;;;2.5;78.6;99800;;;;
2021/12/14 09:17:55;;;;;;;153.5;213.6;;;;;;;2.5;78;99800;;;;
2021/12/14 09:27:55;;;;;;;153.5;213.6;;;;;;;2.9;77;99800;;;;
2021/12/14 09:38:56;;;;;;;184.1;259.1;;;;;;;2.8;76.9;99770;;;;
2021/12/14 09:48:55;;;;;;;184.1;259.1;;;;;;;2.9;76.5;99760;;;;
2021/12/14 09:59:55;;;;;;;161.8;216.6;;;;;;;2.9;75.7;99770;;;;
2021/12/14 10:11:00;;;;;;;161.8;216.6;;;;;;;3.2;75.7;99750;;;;
2021/12/14 10:20:55;;;;;;;161.8;216.6;;;;;;;3.1;75.1;99750;;;;
2021/12/14 10:30:56;;;;;;;161.7;216.8;;;;;;;3.5;74.6;99750;;;;
2021/12/14 10:51:55;;;;;;;161.7;216.8;;;;;;;3.6;74.8;99750;;;;
2021/12/14 11:03:00;;;;;;;144;191.7;;;;;;;3.8;74.8;99740;;;;
2021/12/14 11:14:00;;;;;;;144;191.7;;;;;;;4;74.4;99730;;;;
2021/12/14 11:23:55;;;;;;;144;191.7;;;;;;;4.2;73.7;99720;;;;
2021/12/14 11:33:55;;;;;;;58.9;75;;;;;;;4.3;73.6;99720;;;;
2021/12/14 11:44:55;;;;;;;58.9;75;;;;;;;4.1;74;99700;;;;
2021/12/14 11:55:55;;;;;;;58.9;75;;;;;;;4.4;73;99700;;;;
2021/12/14 12:06:01;;;;;;;55.5;65.7;;;;;;;4.4;72.8;99700;;;;
2021/12/14 12:16:55;;;;;;;55.5;65.7;;;;;;;4.2;72.7;99710;;;;
2021/12/14 12:27:56;;;;;;;55.5;65.7;;;;;;;4.4;72.2;99700;;;;
2021/12/14 12:37:55;;;;;;;60.5;76.6;;;;;;;4.4;72.4;99690;;;;
2021/12/14 12:47:56;;;;;;;60.5;76.6;;;;;;;4.3;72.2;99700;;;;
2021/12/14 12:57:58;;;;;;;60.5;76.6;;;;;;;4.2;73.1;99700;;;;
2021/12/14 13:07:55;;;;;;;34.8;43.7;;;;;;;4.2;72.9;99700;;;;
2021/12/14 13:18:55;;;;;;;34.8;43.7;;;;;;;4.1;73.4;99700;;;;
2021/12/14 13:28:55;;;;;;;34.8;43.7;;;;;;;3.9;74.1;99730;;;;
2021/12/14 13:39:55;;;;;;;47.9;59;;;;;;;3.7;75;99710;;;;
2021/12/14 13:49:55;;;;;;;47.9;59;;;;;;;3.7;75.7;99720;;;;
2021/12/14 13:59:55;;;;;;;33.9;43;;;;;;;3.6;76.1;99730;;;;
2021/12/14 14:10:55;;;;;;;33.9;43;;;;;;;3.5;76.8;99710;;;;
2021/12/14 14:21:55;;;;;;;33.9;43;;;;;;;3.3;77.1;99710;;;;
2021/12/14 14:32:55;;;;;;;42.1;46.8;;;;;;;3.1;77.6;99710;;;;
2021/12/14 14:42:56;;;;;;;42.1;46.8;;;;;;;3;77.8;99710;;;;
2021/12/14 14:52:55;;;;;;;42.1;46.8;;;;;;;3;77.9;99720;;;;
2021/12/14 15:02:55;;;;;;;96.3;118.8;;;;;;;3;77.9;99710;;;;
2021/12/14 15:13:55;;;;;;;96.3;118.8;;;;;;;3;77.6;99710;;;;
2021/12/14 15:24:55;;;;;;;96.3;118.8;;;;;;;2.9;77.7;99710;;;;
2021/12/14 15:35:55;;;;;;;53.9;63.3;;;;;;;3.1;77.6;99710;;;;
2021/12/14 15:45:55;;;;;;;53.9;63.3;;;;;;;3.1;77.5;99700;;;;
2021/12/14 15:56:55;;;;;;;53.9;63.3;;;;;;;3.2;77.4;99680;;;;
2021/12/14 16:06:55;;;;;;;119.1;137;;;;;;;3;78;99680;;;;
2021/12/14 16:16:55;;;;;;;119.1;137;;;;;;;3.1;77.8;99700;;;;
2021/12/14 16:27:55;;;;;;;119.1;137;;;;;;;3.1;77.8;99700;;;;
2021/12/14 16:38:56;;;;;;;84.3;102.3;;;;;;;3.2;77.7;99720;;;;
2021/12/14 16:48:55;;;;;;;84.3;102.3;;;;;;;3.1;78.1;99740;;;;
2021/12/14 16:58:55;;;;;;;120.1;143.7;;;;;;;3.1;78.3;99740;;;;
2021/12/14 17:08:58;;;;;;;120.1;143.7;;;;;;;3.2;78.4;99730;;;;
2021/12/14 17:19:56;;;;;;;120.1;143.7;;;;;;;3.2;78.6;99730;;;;
2021/12/14 17:30:55;;;;;;;91.9;107.7;;;;;;;3.2;78.7;99740;;;;
2021/12/14 17:41:56;;;;;;;91.9;107.7;;;;;;;3.2;79;99730;;;;
2021/12/14 17:51:55;;;;;;;91.9;107.7;;;;;;;3.2;79.1;99710;;;;
2021/12/14 18:01:55;;;;;;;81.6;96.1;;;;;;;3.2;79.1;99710;;;;
2021/12/14 18:11:56;;;;;;;81.6;96.1;;;;;;;3.1;79.3;99720;;;;
2021/12/14 18:22:56;;;;;;;81.6;96.1;;;;;;;3.2;79.2;99720;;;;
2021/12/14 18:33:56;;;;;;;84.8;102.6;;;;;;;3.3;79.3;99740;;;;
2021/12/14 18:43:56;;;;;;;84.8;102.6;;;;;;;3.3;79.2;99760;;;;
2021/12/14 18:53:56;;;;;;;84.8;102.6;;;;;;;3.3;79.3;99750;;;;
2021/12/14 19:04:56;;;;;;;107.6;125.4;;;;;;;3.3;79.3;99750;;;;
2021/12/14 19:14:56;;;;;;;107.6;125.4;;;;;;;3.3;79.5;99750;;;;
2021/12/14 19:25:56;;;;;;;107.6;125.4;;;;;;;3.3;79.4;99760;;;;
2021/12/14 19:36:56;;;;;;;93.4;106.7;;;;;;;3.3;79.4;99760;;;;
2021/12/14 19:46:56;;;;;;;93.4;106.7;;;;;;;3.3;79.4;99760;;;;
2021/12/14 19:56:56;;;;;;;93.4;106.7;;;;;;;3.3;79.5;99750;;;;
2021/12/14 20:07:57;;;;;;;97.5;109.1;;;;;;;3.4;79.4;99750;;;;
2021/12/14 20:17:56;;;;;;;97.5;109.1;;;;;;;3.3;79.5;99770;;;;
2021/12/14 20:27:56;;;;;;;97.5;109.1;;;;;;;3.3;79.6;99770;;;;
2021/12/14 20:38:56;;;;;;;101.1;120.1;;;;;;;3.4;79.8;99790;;;;
2021/12/14 20:49:56;;;;;;;101.1;120.1;;;;;;;3.5;79.5;99800;;;;
2021/12/14 21:00:56;;;;;;;95.2;117;;;;;;;3.6;79.5;99800;;;;
2021/12/14 21:10:56;;;;;;;95.2;117;;;;;;;3.6;79.2;99800;;;;
2021/12/14 21:21:56;;;;;;;95.2;117;;;;;;;3.6;79.2;99810;;;;
2021/12/14 21:32:56;;;;;;;105.4;126.6;;;;;;;3.6;79;99830;;;;
2021/12/14 21:42:56;;;;;;;105.4;126.6;;;;;;;3.6;79.2;99830;;;;
2021/12/14 21:53:56;;;;;;;105.4;126.6;;;;;;;3.6;79.3;99830;;;;
2021/12/14 22:03:56;;;;;;;110.4;130.3;;;;;;;3.6;79.8;99840;;;;
2021/12/14 22:14:00;;;;;;;110.4;130.3;;;;;;;3.6;79.8;99830;;;;
2021/12/14 22:24:56;;;;;;;110.4;130.3;;;;;;;3.5;80.5;99840;;;;
2021/12/14 22:35:56;;;;;;;104.6;121.4;;;;;;;3.2;82.6;99820;;;;
2021/12/14 22:45:56;;;;;;;104.6;121.4;;;;;;;3.4;82.7;99830;;;;
2021/12/14 22:56:56;;;;;;;104.6;121.4;;;;;;;3.7;82.3;99830;;;;
2021/12/14 23:07:56;;;;;;;95.5;117.2;;;;;;;3.7;82.5;99810;;;;
2021/12/14 23:18:07;;;;;;;95.5;117.2;;;;;;;3.9;82.1;99820;;;;
2021/12/14 23:27:56;;;;;;;86.6;101.5;;;;;;;4;81.9;99820;;;;
2021/12/14 23:38:56;;;;;;;86.6;101.5;;;;;;;4;82;99830;;;;
2021/12/14 23:48:56;;;;;;;86.6;101.5;;;;;;;4.1;82.2;99820;;;;
2021/12/14 23:58:56;;;;;;;75.8;98;;;;;;;4.1;82.2;99830;;;;
